Time;durP1;ratioP1;P1;durP2;ratioP2;P2;SDS_P1;SDS_P2;PMS_P1;PMS_P2;Temp;Humidity;BMP_temperature;BMP_pressure;BME280_temperature;BME280_humidity;BME280_pressure;Samples;Min_cycle;Max_cycle;Signal;HPM_P1;HPM_P2
2023/09/03 00:00:47;;;;;;;0.10;0.10;;;16.20;53.50;;;;;;5051591;28;20202;-53
2023/09/03 00:03:18;;;;;;;0.10;0.10;;;16.20;53.50;;;;;;5051674;28;20206;-53
2023/09/03 00:05:53;;;;;;;0.03;0.03;;;16.20;53.60;;;;;;5051185;28;20211;-50
2023/09/03 00:08:25;;;;;;;0.10;0.10;;;16.20;53.70;;;;;;5051488;28;20217;-51
2023/09/03 00:10:56;;;;;;;0.10;0.10;;;16.20;53.70;;;;;;5052052;28;20234;-57
2023/09/03 00:13:27;;;;;;;0.10;0.10;;;16.20;53.70;;;;;;5051692;28;20258;-50
2023/09/03 00:16:00;;;;;;;0.10;0.10;;;16.30;53.80;;;;;;5051741;28;20192;-50
2023/09/03 00:18:32;;;;;;;0.10;0.10;;;16.30;53.70;;;;;;5051595;28;20687;-51
2023/09/03 00:21:05;;;;;;;0.10;0.10;;;16.30;53.70;;;;;;5051745;28;20195;-51
2023/09/03 00:23:35;;;;;;;0.00;0.00;;;16.30;53.70;;;;;;5051550;28;20651;-54
2023/09/03 00:26:06;;;;;;;0.08;0.08;;;16.30;53.60;;;;;;5051423;28;20203;-57
2023/09/03 00:28:37;;;;;;;0.13;0.13;;;16.40;53.70;;;;;;5051447;28;20198;-51
2023/09/03 00:31:10;;;;;;;0.10;0.10;;;16.30;53.60;;;;;;5051372;28;20227;-55
2023/09/03 00:33:41;;;;;;;0.10;0.10;;;16.40;54.20;;;;;;5051607;28;20199;-54
2023/09/03 00:36:13;;;;;;;0.15;0.15;;;16.40;53.60;;;;;;5051007;28;20666;-54
2023/09/03 00:38:43;;;;;;;0.10;0.10;;;16.40;53.60;;;;;;5051539;28;20191;-54
2023/09/03 00:41:14;;;;;;;0.10;0.10;;;16.40;53.70;;;;;;5051404;28;20663;-54
2023/09/03 00:43:45;;;;;;;0.10;0.10;;;16.50;53.70;;;;;;5051458;28;20195;-55
2023/09/03 00:46:17;;;;;;;0.10;0.10;;;16.50;53.70;;;;;;5051297;28;20192;-55
2023/09/03 00:48:48;;;;;;;0.10;0.10;;;16.50;53.70;;;;;;5051286;28;20195;-54
2023/09/03 00:51:19;;;;;;;0.00;0.00;;;16.50;53.70;;;;;;5051169;28;20587;-54
2023/09/03 00:53:56;;;;;;;0.10;0.10;;;16.50;53.70;;;;;;5051382;28;20199;-53
2023/09/03 00:56:27;;;;;;;0.10;0.10;;;16.50;53.80;;;;;;5050795;28;20203;-54
2023/09/03 00:58:58;;;;;;;0.10;0.10;;;16.60;53.80;;;;;;5050816;28;20192;-53
2023/09/03 01:01:31;;;;;;;0.10;0.10;;;16.60;53.80;;;;;;5050884;28;20202;-51
2023/09/03 01:04:02;;;;;;;0.03;0.03;;;16.60;53.70;;;;;;5050549;28;20203;-49
2023/09/03 01:06:33;;;;;;;0.10;0.10;;;16.60;54.30;;;;;;5030735;28;20219;-56
2023/09/03 01:09:03;;;;;;;0.10;0.10;;;16.60;53.70;;;;;;5031723;28;20201;-54
2023/09/03 01:11:43;;;;;;;0.10;0.10;;;16.70;53.80;;;;;;5031105;28;20231;-47
2023/09/03 01:14:23;;;;;;;0.08;0.08;;;16.70;53.80;;;;;;5031578;28;20199;-56
2023/09/03 01:17:00;;;;;;;0.00;0.00;;;16.70;53.80;;;;;;5031455;28;20216;-54
2023/09/03 01:20:00;;;;;;;0.10;0.10;;;16.70;53.80;;;;;;5045339;28;20199;-54
2023/09/03 01:22:50;;;;;;;0.10;0.10;;;16.70;53.80;;;;;;5031365;28;20204;-53
2023/09/03 01:25:49;;;;;;;0.10;0.10;;;16.80;53.80;;;;;;5031812;28;20223;-52
2023/09/03 01:28:27;;;;;;;0.10;0.10;;;16.80;53.90;;;;;;5034870;28;20220;-52
2023/09/03 01:31:00;;;;;;;0.10;0.10;;;16.70;53.90;;;;;;5034693;28;20220;-49
2023/09/03 01:33:33;;;;;;;0.10;0.10;;;16.80;54.10;;;;;;5035057;28;20207;-55
2023/09/03 01:36:06;;;;;;;0.10;0.10;;;16.80;54.10;;;;;;5051391;28;20214;-53
2023/09/03 01:38:37;;;;;;;0.00;0.00;;;16.80;54.40;;;;;;5054811;28;20568;-52
2023/09/03 01:41:08;;;;;;;0.10;0.10;;;16.80;54.10;;;;;;5053959;28;20207;-52
2023/09/03 01:43:41;;;;;;;0.00;0.00;;;16.90;54.20;;;;;;5054286;28;20199;-54
2023/09/03 01:46:14;;;;;;;0.00;0.00;;;16.90;54.20;;;;;;5054533;28;20250;-55
2023/09/03 01:49:05;;;;;;;0.10;0.10;;;16.90;54.10;;;;;;5054138;28;20200;-55
2023/09/03 01:51:43;;;;;;;0.10;0.10;;;16.90;54.10;;;;;;5054176;28;20227;-53
2023/09/03 01:54:19;;;;;;;0.10;0.10;;;16.90;54.10;;;;;;5054339;28;20541;-55
2023/09/03 01:57:02;;;;;;;0.10;0.10;;;16.90;54.10;;;;;;5053954;28;20218;-54
2023/09/03 01:59:38;;;;;;;0.10;0.10;;;16.90;54.10;;;;;;5054155;28;20658;-56
2023/09/03 02:02:09;;;;;;;0.10;0.10;;;16.90;54.10;;;;;;5054032;28;20201;-52
2023/09/03 02:04:40;;;;;;;0.10;0.10;;;16.90;54.30;;;;;;5053543;28;20777;-54
2023/09/03 02:07:11;;;;;;;0.10;0.10;;;17.00;54.20;;;;;;5053935;28;20631;-53
2023/09/03 02:09:42;;;;;;;0.10;0.10;;;17.00;54.20;;;;;;5054335;28;20279;-53
2023/09/03 02:12:14;;;;;;;0.10;0.10;;;17.00;54.30;;;;;;5053565;28;20243;-56
2023/09/03 02:14:46;;;;;;;0.10;0.10;;;17.00;54.30;;;;;;5053642;28;20202;-56
2023/09/03 02:17:19;;;;;;;0.10;0.10;;;17.00;54.30;;;;;;5053494;28;20220;-50
2023/09/03 02:19:51;;;;;;;0.08;0.08;;;17.00;54.30;;;;;;5053664;28;20198;-54
2023/09/03 02:22:22;;;;;;;0.10;0.10;;;17.10;54.50;;;;;;5053677;28;20195;-54
2023/09/03 02:24:54;;;;;;;0.10;0.10;;;17.10;54.50;;;;;;5053680;28;20215;-55
2023/09/03 02:27:25;;;;;;;0.10;0.10;;;17.10;54.40;;;;;;5053049;28;20223;-55
2023/09/03 02:29:57;;;;;;;0.10;0.10;;;17.10;54.50;;;;;;5053755;28;20223;-57
2023/09/03 02:32:28;;;;;;;0.10;0.10;;;17.10;54.40;;;;;;5053599;28;20570;-54
2023/09/03 02:34:58;;;;;;;0.10;0.10;;;17.10;54.40;;;;;;5053449;28;20206;-56
2023/09/03 02:37:29;;;;;;;0.10;0.10;;;17.10;54.40;;;;;;5053296;28;20215;-54
2023/09/03 02:40:00;;;;;;;0.10;0.10;;;17.10;54.30;;;;;;5053353;28;20202;-55
2023/09/03 02:42:30;;;;;;;0.10;0.10;;;17.10;54.30;;;;;;5053211;28;20227;-56
2023/09/03 02:45:04;;;;;;;0.10;0.10;;;17.20;54.40;;;;;;5053474;28;20655;-56
2023/09/03 02:47:34;;;;;;;0.10;0.10;;;17.20;54.40;;;;;;5053288;28;20216;-55
2023/09/03 02:50:05;;;;;;;0.10;0.10;;;17.20;54.40;;;;;;5052939;28;20195;-57
2023/09/03 02:52:36;;;;;;;0.10;0.10;;;17.20;54.40;;;;;;5053441;28;20698;-53
2023/09/03 02:55:06;;;;;;;0.10;0.10;;;17.20;54.40;;;;;;5053145;28;20200;-56
2023/09/03 02:57:37;;;;;;;0.10;0.10;;;17.20;54.40;;;;;;5053016;28;20306;-53
2023/09/03 03:00:10;;;;;;;0.10;0.10;;;17.20;54.40;;;;;;5052936;28;20237;-56
2023/09/03 03:02:41;;;;;;;0.00;0.00;;;17.30;54.60;;;;;;5052298;28;20200;-52
2023/09/03 03:05:12;;;;;;;0.10;0.10;;;17.30;54.60;;;;;;5052681;28;20226;-53
2023/09/03 03:07:45;;;;;;;0.10;0.10;;;17.30;54.50;;;;;;5052472;28;20220;-56
2023/09/03 03:10:16;;;;;;;0.05;0.05;;;17.30;54.50;;;;;;5053235;28;20203;-49
2023/09/03 03:12:47;;;;;;;0.10;0.10;;;17.30;54.50;;;;;;5052269;28;20227;-55
2023/09/03 03:15:20;;;;;;;0.00;0.00;;;17.30;55.10;;;;;;5053543;28;20215;-54
2023/09/03 03:17:50;;;;;;;0.10;0.10;;;17.30;54.50;;;;;;5053011;28;20219;-52
2023/09/03 03:20:22;;;;;;;0.10;0.10;;;17.30;54.50;;;;;;5052347;28;20207;-55
2023/09/03 03:22:53;;;;;;;0.10;0.10;;;17.30;54.40;;;;;;5052449;28;20195;-53
2023/09/03 03:25:24;;;;;;;0.10;0.10;;;17.30;54.40;;;;;;5052148;28;20655;-56
2023/09/03 03:27:54;;;;;;;0.10;0.10;;;17.30;54.40;;;;;;5052176;28;20634;-50
2023/09/03 03:30:28;;;;;;;0.10;0.10;;;17.30;54.40;;;;;;5050307;28;20690;-56
2023/09/03 03:32:58;;;;;;;0.00;0.00;;;17.40;54.50;;;;;;5052395;28;20330;-53
2023/09/03 03:35:32;;;;;;;0.10;0.10;;;17.40;54.50;;;;;;5052134;28;20220;-52
2023/09/03 03:38:03;;;;;;;0.10;0.10;;;17.40;54.60;;;;;;5052595;28;20289;-58
2023/09/03 03:40:33;;;;;;;0.00;0.00;;;17.40;54.80;;;;;;5052229;28;20197;-52
2023/09/03 03:43:04;;;;;;;0.10;0.10;;;17.40;54.90;;;;;;5051816;28;20195;-57
2023/09/03 03:45:38;;;;;;;0.10;0.10;;;17.40;54.90;;;;;;5047951;28;20203;-55
2023/09/03 03:48:09;;;;;;;0.00;0.00;;;17.50;54.90;;;;;;5030836;28;20222;-57
2023/09/03 03:50:40;;;;;;;0.10;0.10;;;17.50;54.80;;;;;;5031578;28;20196;-50
2023/09/03 03:53:10;;;;;;;0.00;0.00;;;17.50;54.80;;;;;;5032262;28;20232;-50
2023/09/03 03:55:41;;;;;;;0.10;0.10;;;17.50;54.80;;;;;;5032260;28;20652;-51
2023/09/03 03:58:11;;;;;;;0.00;0.00;;;17.50;54.70;;;;;;5034890;28;20215;-54
2023/09/03 04:00:44;;;;;;;0.00;0.00;;;17.50;54.80;;;;;;5051928;28;20199;-52
2023/09/03 04:03:15;;;;;;;0.10;0.10;;;17.50;54.80;;;;;;5051267;28;20203;-52
2023/09/03 04:05:45;;;;;;;0.10;0.10;;;17.50;54.70;;;;;;5051472;28;20195;-53
2023/09/03 04:08:16;;;;;;;0.10;0.10;;;17.50;54.70;;;;;;5051765;28;20219;-55
2023/09/03 04:10:46;;;;;;;0.00;0.00;;;17.50;54.80;;;;;;5052476;28;20207;-49
2023/09/03 04:13:17;;;;;;;0.10;0.10;;;17.50;54.80;;;;;;5051579;28;20562;-54
2023/09/03 04:15:49;;;;;;;0.10;0.10;;;17.50;54.80;;;;;;5051805;28;20207;-46
2023/09/03 04:18:20;;;;;;;0.00;0.00;;;17.50;54.80;;;;;;5051080;28;20215;-55
2023/09/03 04:20:54;;;;;;;0.00;0.00;;;17.50;54.80;;;;;;5051570;28;20199;-48
2023/09/03 04:23:24;;;;;;;0.10;0.10;;;17.50;54.70;;;;;;5051374;28;20212;-50
2023/09/03 04:25:56;;;;;;;0.10;0.10;;;17.50;54.70;;;;;;5050887;28;20207;-49
2023/09/03 04:28:27;;;;;;;0.10;0.10;;;17.50;54.70;;;;;;5051370;28;20218;-54
2023/09/03 04:31:04;;;;;;;0.10;0.10;;;17.50;54.70;;;;;;5051743;28;20782;-53
2023/09/03 04:33:34;;;;;;;0.10;0.10;;;17.50;54.60;;;;;;5050903;28;20772;-52
2023/09/03 04:36:05;;;;;;;0.05;0.05;;;17.50;54.60;;;;;;5051023;28;20211;-50
2023/09/03 04:38:36;;;;;;;0.00;0.00;;;17.50;54.60;;;;;;5051123;28;20206;-54
2023/09/03 04:41:07;;;;;;;0.10;0.10;;;17.50;54.60;;;;;;5051083;28;20564;-49
2023/09/03 04:43:39;;;;;;;0.10;0.10;;;17.50;54.60;;;;;;5051260;28;20203;-55
2023/09/03 04:46:12;;;;;;;0.00;0.00;;;17.50;54.60;;;;;;5052145;28;20196;-49
2023/09/03 04:48:42;;;;;;;0.08;0.08;;;17.50;54.60;;;;;;5050939;28;20190;-45
2023/09/03 04:51:13;;;;;;;0.10;0.10;;;17.50;54.60;;;;;;5051395;28;20199;-51
2023/09/03 04:53:44;;;;;;;0.10;0.10;;;17.50;54.60;;;;;;5051065;28;20234;-51
2023/09/03 04:56:15;;;;;;;0.03;0.03;;;17.50;54.60;;;;;;5050955;28;20202;-46
2023/09/03 04:58:45;;;;;;;0.10;0.10;;;17.50;54.60;;;;;;5051555;28;20203;-53
2023/09/03 05:01:21;;;;;;;0.10;0.10;;;17.50;54.60;;;;;;5055390;28;20191;-53
2023/09/03 05:03:51;;;;;;;0.10;0.10;;;17.50;54.60;;;;;;5054973;28;20199;-49
2023/09/03 05:06:22;;;;;;;0.03;0.03;;;17.50;54.60;;;;;;5055197;28;20206;-48
2023/09/03 05:08:53;;;;;;;0.05;0.05;;;17.50;54.60;;;;;;5054633;28;20192;-46
2023/09/03 05:11:23;;;;;;;0.10;0.10;;;17.50;54.50;;;;;;5054727;28;20218;-47
2023/09/03 05:13:54;;;;;;;0.10;0.10;;;17.50;54.50;;;;;;5054988;28;20246;-51
2023/09/03 05:16:27;;;;;;;0.08;0.08;;;17.50;54.50;;;;;;5055054;28;20199;-50
2023/09/03 05:19:04;;;;;;;0.08;0.08;;;17.50;54.50;;;;;;5054378;28;20204;-53
2023/09/03 05:21:35;;;;;;;0.08;0.08;;;17.50;54.50;;;;;;5055328;28;20187;-54
2023/09/03 05:24:05;;;;;;;0.10;0.10;;;17.50;54.50;;;;;;5054328;28;20206;-52
2023/09/03 05:26:36;;;;;;;0.10;0.10;;;17.50;54.50;;;;;;5053926;28;20578;-54
2023/09/03 05:29:07;;;;;;;0.00;0.00;;;17.50;54.50;;;;;;5054207;28;20196;-50
2023/09/03 05:31:39;;;;;;;0.08;0.08;;;17.40;54.50;;;;;;5034719;28;20192;-52
2023/09/03 05:34:10;;;;;;;0.03;0.03;;;17.40;54.50;;;;;;5034987;28;20204;-46
2023/09/03 05:36:40;;;;;;;0.10;0.10;;;17.40;54.40;;;;;;5054022;28;20219;-53
2023/09/03 05:39:11;;;;;;;0.00;0.00;;;17.40;54.40;;;;;;5053894;28;20200;-51
2023/09/03 05:41:42;;;;;;;0.10;0.10;;;17.40;54.40;;;;;;5053607;28;20191;-53
2023/09/03 05:44:15;;;;;;;0.10;0.10;;;17.40;54.40;;;;;;5054130;28;20569;-53
2023/09/03 05:46:48;;;;;;;0.10;0.10;;;17.40;54.40;;;;;;5053866;28;20296;-54
2023/09/03 05:49:19;;;;;;;0.10;0.10;;;17.40;54.40;;;;;;5054121;28;20202;-48
2023/09/03 05:51:49;;;;;;;0.10;0.10;;;17.40;54.40;;;;;;5054257;28;20200;-49
2023/09/03 05:54:20;;;;;;;0.10;0.10;;;17.40;54.40;;;;;;5054496;28;20647;-51
2023/09/03 05:56:50;;;;;;;0.10;0.10;;;17.40;54.40;;;;;;5054014;28;20226;-54
2023/09/03 05:59:21;;;;;;;0.00;0.00;;;17.40;54.40;;;;;;5054163;28;20200;-55
2023/09/03 06:01:53;;;;;;;0.10;0.10;;;17.40;54.40;;;;;;5054161;28;20714;-54
2023/09/03 06:04:24;;;;;;;0.10;0.10;;;17.40;54.40;;;;;;5053747;28;20207;-49
2023/09/03 06:06:55;;;;;;;0.10;0.10;;;17.30;54.40;;;;;;5053772;28;20215;-55
2023/09/03 06:09:25;;;;;;;0.10;0.10;;;17.30;54.40;;;;;;5053825;28;20192;-55
2023/09/03 06:11:56;;;;;;;0.10;0.10;;;17.30;54.40;;;;;;5052770;28;20218;-50
2023/09/03 06:14:27;;;;;;;0.10;0.10;;;17.30;54.40;;;;;;5053726;28;20195;-49
2023/09/03 06:16:59;;;;;;;0.10;0.10;;;17.30;55.00;;;;;;5053114;28;20713;-53
2023/09/03 06:19:30;;;;;;;0.10;0.10;;;17.30;54.40;;;;;;5053961;28;20708;-50
2023/09/03 06:22:01;;;;;;;0.10;0.10;;;17.30;54.50;;;;;;5053486;28;20249;-53
2023/09/03 06:24:31;;;;;;;0.15;0.15;;;17.30;54.40;;;;;;5053503;28;20199;-53
2023/09/03 06:27:02;;;;;;;0.08;0.08;;;17.30;54.40;;;;;;5053174;28;20695;-55
2023/09/03 06:29:32;;;;;;;0.10;0.10;;;17.30;54.40;;;;;;5054056;28;20567;-54
2023/09/03 06:32:05;;;;;;;0.10;0.10;;;17.30;54.30;;;;;;5053512;28;20563;-55
2023/09/03 06:34:36;;;;;;;0.00;0.00;;;17.30;54.40;;;;;;5053560;28;20203;-53
2023/09/03 06:37:07;;;;;;;0.10;0.10;;;17.30;54.30;;;;;;5053555;28;20211;-56
2023/09/03 06:39:38;;;;;;;0.10;0.10;;;17.30;54.40;;;;;;5053184;28;20407;-49
2023/09/03 06:42:08;;;;;;;0.10;0.10;;;17.30;54.40;;;;;;5053096;28;20199;-52
2023/09/03 06:44:39;;;;;;;0.10;0.10;;;17.30;54.40;;;;;;5053564;28;20198;-52
2023/09/03 06:47:11;;;;;;;0.10;0.10;;;17.30;54.40;;;;;;5053244;28;20588;-49
2023/09/03 06:49:42;;;;;;;0.10;0.10;;;17.30;54.40;;;;;;5053371;28;20535;-48
2023/09/03 06:52:13;;;;;;;0.10;0.10;;;17.20;54.40;;;;;;5052962;28;20239;-50
2023/09/03 06:54:43;;;;;;;0.10;0.10;;;17.20;54.40;;;;;;5052979;28;20196;-53
2023/09/03 06:57:14;;;;;;;0.10;0.10;;;17.20;54.50;;;;;;5052711;28;20215;-53
2023/09/03 06:59:45;;;;;;;0.08;0.08;;;17.20;54.50;;;;;;5052875;28;20203;-53
2023/09/03 07:02:17;;;;;;;0.10;0.10;;;17.20;54.50;;;;;;5052940;28;20667;-53
2023/09/03 07:04:48;;;;;;;0.10;0.10;;;17.20;54.60;;;;;;5052311;28;20229;-51
2023/09/03 07:07:18;;;;;;;0.10;0.10;;;17.20;54.60;;;;;;5052630;28;20215;-52
2023/09/03 07:09:49;;;;;;;0.10;0.10;;;17.20;54.70;;;;;;5053066;28;20656;-55
2023/09/03 07:12:20;;;;;;;0.10;0.10;;;17.20;54.70;;;;;;5053056;28;20203;-66
2023/09/03 07:14:51;;;;;;;0.10;0.10;;;17.20;54.60;;;;;;5052379;28;20192;-57
2023/09/03 07:17:23;;;;;;;0.10;0.10;;;17.20;54.60;;;;;;5049433;28;20306;-51
2023/09/03 07:19:57;;;;;;;0.10;0.10;;;17.20;54.60;;;;;;5052413;28;20545;-55
2023/09/03 07:22:27;;;;;;;0.20;0.20;;;17.20;54.50;;;;;;5051399;28;20206;-50
2023/09/03 07:24:58;;;;;;;0.00;0.00;;;17.20;54.50;;;;;;5052251;28;20192;-56
2023/09/03 07:27:29;;;;;;;0.00;0.00;;;17.20;54.60;;;;;;5055052;28;20219;-57
2023/09/03 07:29:59;;;;;;;0.10;0.10;;;17.20;54.60;;;;;;5052436;28;20200;-57
2023/09/03 07:32:34;;;;;;;0.10;0.10;;;17.20;54.70;;;;;;5051536;28;20203;-57
2023/09/03 07:35:06;;;;;;;0.05;0.05;;;17.20;54.70;;;;;;5051787;28;20651;-54
2023/09/03 07:37:37;;;;;;;0.03;0.03;;;17.10;54.70;;;;;;5051572;28;20280;-49
2023/09/03 07:40:09;;;;;;;0.10;0.10;;;17.10;54.80;;;;;;5051804;28;20202;-56
2023/09/03 07:42:39;;;;;;;0.10;0.10;;;17.10;54.80;;;;;;5051715;28;20604;-53
2023/09/03 07:45:11;;;;;;;0.10;0.10;;;17.10;54.80;;;;;;5049139;28;20198;-51
2023/09/03 07:47:43;;;;;;;0.10;0.10;;;17.10;54.80;;;;;;5052022;28;20281;-54
2023/09/03 07:50:14;;;;;;;0.10;0.10;;;17.10;54.80;;;;;;5051874;28;20495;-57
2023/09/03 07:52:45;;;;;;;0.10;0.10;;;17.10;54.80;;;;;;5059890;28;20195;-52
2023/09/03 07:55:16;;;;;;;0.10;0.10;;;17.10;54.70;;;;;;5049322;28;20187;-54
2023/09/03 07:57:46;;;;;;;0.10;0.10;;;17.10;54.70;;;;;;5050740;28;20733;-55
2023/09/03 08:00:18;;;;;;;0.10;0.10;;;17.10;54.70;;;;;;5046876;28;20192;-54
2023/09/03 08:02:50;;;;;;;0.00;0.00;;;17.10;54.70;;;;;;5037315;28;20271;-51
2023/09/03 08:05:21;;;;;;;0.10;0.10;;;17.10;54.80;;;;;;5047150;28;20195;-53
2023/09/03 08:07:51;;;;;;;0.00;0.00;;;17.10;54.80;;;;;;5032706;28;20215;-56
2023/09/03 08:10:22;;;;;;;0.00;0.00;;;17.10;54.80;;;;;;5039069;28;20208;-51
2023/09/03 08:12:53;;;;;;;0.10;0.10;;;17.10;54.90;;;;;;5043735;28;20223;-57
2023/09/03 08:15:23;;;;;;;0.10;0.10;;;17.10;54.90;;;;;;5037191;28;20204;-55
2023/09/03 08:17:56;;;;;;;0.10;0.10;;;17.00;54.80;;;;;;5046761;28;20250;-56
2023/09/03 08:20:28;;;;;;;0.00;0.00;;;17.10;54.90;;;;;;5039957;28;20200;-56
2023/09/03 08:22:58;;;;;;;0.10;0.10;;;17.00;54.90;;;;;;5035768;28;20225;-57
2023/09/03 08:25:29;;;;;;;0.10;0.10;;;17.00;54.90;;;;;;5039713;28;20577;-56
2023/09/03 08:28:00;;;;;;;0.00;0.00;;;17.00;54.90;;;;;;5055014;28;20222;-58
2023/09/03 08:30:30;;;;;;;0.10;0.10;;;17.00;54.90;;;;;;5041334;28;20207;-58
2023/09/03 08:33:03;;;;;;;0.10;0.10;;;17.00;54.90;;;;;;5041984;28;20223;-50
2023/09/03 08:35:34;;;;;;;0.10;0.10;;;17.00;54.90;;;;;;5055512;28;20202;-53
2023/09/03 08:38:05;;;;;;;0.00;0.00;;;17.00;54.90;;;;;;5038424;28;20222;-52
2023/09/03 08:40:36;;;;;;;0.03;0.03;;;17.00;54.90;;;;;;5046514;28;20203;-56
2023/09/03 08:43:10;;;;;;;0.10;0.10;;;17.00;54.90;;;;;;5047331;28;20315;-53
2023/09/03 08:45:50;;;;;;;0.00;0.00;;;17.00;54.90;;;;;;5048191;28;20204;-57
2023/09/03 08:48:23;;;;;;;0.10;0.10;;;17.00;54.90;;;;;;5037939;28;20227;-53
2023/09/03 08:50:54;;;;;;;0.05;0.05;;;17.00;55.00;;;;;;5037948;28;20196;-56
2023/09/03 08:53:25;;;;;;;0.10;0.10;;;17.00;54.90;;;;;;5037803;28;20223;-58
2023/09/03 08:55:57;;;;;;;0.10;0.10;;;17.00;55.00;;;;;;5037645;28;20203;-57
2023/09/03 08:58:27;;;;;;;0.10;0.10;;;17.00;55.00;;;;;;5037393;28;20733;-58
2023/09/03 09:00:58;;;;;;;0.10;0.10;;;17.00;55.00;;;;;;5037579;28;20563;-54
2023/09/03 09:03:34;;;;;;;0.10;0.10;;;17.00;55.00;;;;;;5037869;28;20398;-57
2023/09/03 09:06:09;;;;;;;0.00;0.00;;;17.00;55.00;;;;;;5054604;28;20203;-50
2023/09/03 09:08:41;;;;;;;0.10;0.10;;;17.00;55.00;;;;;;5057487;28;20556;-57
2023/09/03 09:11:19;;;;;;;0.10;0.10;;;17.00;55.00;;;;;;5057997;28;20195;-57
2023/09/03 09:13:56;;;;;;;0.08;0.08;;;17.00;55.00;;;;;;5057589;28;20285;-57
2023/09/03 09:16:27;;;;;;;0.00;0.00;;;17.00;55.00;;;;;;5057617;28;20222;-57
2023/09/03 09:19:02;;;;;;;0.10;0.10;;;17.00;55.60;;;;;;5057140;28;20196;-57
2023/09/03 09:21:33;;;;;;;0.10;0.10;;;17.00;55.10;;;;;;5057582;28;20209;-57
2023/09/03 09:24:05;;;;;;;0.10;0.10;;;17.00;55.10;;;;;;5057365;28;20199;-57
2023/09/03 09:26:38;;;;;;;0.10;0.10;;;17.00;55.10;;;;;;5051033;28;20363;-48
2023/09/03 09:29:09;;;;;;;0.10;0.10;;;17.00;55.10;;;;;;5060644;28;20516;-51
2023/09/03 09:31:39;;;;;;;0.10;0.10;;;17.00;55.10;;;;;;5056180;28;20195;-49
2023/09/03 09:34:15;;;;;;;0.10;0.10;;;17.00;55.20;;;;;;5056911;28;21090;-49
2023/09/03 09:36:56;;;;;;;0.05;0.05;;;17.00;55.10;;;;;;5056858;28;20218;-53
2023/09/03 09:39:27;;;;;;;0.10;0.10;;;17.00;55.20;;;;;;5057049;28;20249;-54
2023/09/03 09:42:11;;;;;;;0.10;0.10;;;17.00;55.20;;;;;;5055884;28;20598;-54
2023/09/03 09:44:57;;;;;;;0.00;0.00;;;17.00;55.10;;;;;;5056295;28;20268;-49
2023/09/03 09:47:28;;;;;;;0.10;0.10;;;17.00;55.10;;;;;;5052730;28;20216;-56
2023/09/03 09:50:00;;;;;;;0.10;0.10;;;17.00;55.10;;;;;;5054136;28;20192;-56
2023/09/03 09:52:38;;;;;;;0.05;0.05;;;17.00;55.10;;;;;;5053590;28;20191;-57
2023/09/03 09:55:09;;;;;;;0.00;0.00;;;16.90;55.10;;;;;;5052544;28;20219;-56
2023/09/03 09:57:40;;;;;;;0.10;0.10;;;17.00;55.10;;;;;;5051931;28;20207;-57
2023/09/03 10:00:11;;;;;;;0.10;0.10;;;17.00;55.10;;;;;;5053782;28;20603;-57
2023/09/03 10:02:42;;;;;;;0.10;0.10;;;16.90;55.10;;;;;;5053279;28;20198;-57
2023/09/03 10:05:15;;;;;;;0.10;0.10;;;16.90;55.10;;;;;;5053160;28;20211;-55
2023/09/03 10:07:46;;;;;;;0.10;0.10;;;17.00;55.10;;;;;;5054730;28;20223;-56
2023/09/03 10:10:17;;;;;;;0.10;0.10;;;16.90;55.10;;;;;;5054539;28;20243;-56
2023/09/03 10:12:47;;;;;;;0.10;0.10;;;17.00;55.10;;;;;;5065850;22;20192;-46
2023/09/03 10:15:18;;;;;;;0.10;0.10;;;16.90;55.00;;;;;;5012108;28;20231;-49
2023/09/03 10:17:54;;;;;;;0.00;0.00;;;17.00;55.10;;;;;;5013291;28;20700;-46
2023/09/03 10:20:29;;;;;;;0.10;0.10;;;17.00;55.10;;;;;;5013552;28;20193;-51
2023/09/03 10:23:01;;;;;;;0.00;0.00;;;16.90;55.00;;;;;;5013184;28;20196;-48
2023/09/03 10:25:35;;;;;;;0.10;0.10;;;17.00;55.10;;;;;;5013154;28;20291;-50
2023/09/03 10:28:09;;;;;;;0.03;0.03;;;17.00;55.10;;;;;;5012469;28;20287;-46
2023/09/03 10:30:46;;;;;;;0.10;0.10;;;17.00;55.10;;;;;;5013599;28;20197;-48
2023/09/03 10:33:17;;;;;;;0.17;0.17;;;16.90;55.00;;;;;;5012912;28;20279;-48
2023/09/03 10:36:17;;;;;;;0.10;0.10;;;16.90;55.00;;;;;;5012834;28;20448;-49
2023/09/03 10:38:47;;;;;;;0.10;0.10;;;16.90;55.00;;;;;;4993669;28;20260;-44
2023/09/03 10:41:22;;;;;;;0.10;0.10;;;16.90;55.00;;;;;;4993972;28;20205;-49
2023/09/03 10:43:53;;;;;;;0.13;0.13;;;16.90;55.00;;;;;;4992896;28;20579;-50
2023/09/03 10:46:25;;;;;;;0.00;0.00;;;17.00;55.10;;;;;;4993495;28;20198;-45
2023/09/03 10:48:57;;;;;;;0.10;0.10;;;16.90;55.00;;;;;;5012895;28;20284;-48
2023/09/03 10:51:37;;;;;;;0.00;0.00;;;17.00;55.10;;;;;;5012776;28;20201;-49
2023/09/03 10:54:19;;;;;;;0.00;0.00;;;16.90;55.00;;;;;;5013252;28;20224;-47
2023/09/03 10:57:19;;;;;;;0.10;0.10;;;16.90;55.10;;;;;;5011524;28;20555;-49
2023/09/03 11:00:18;;;;;;;0.10;0.10;;;16.90;55.00;;;;;;5012263;28;20193;-51
2023/09/03 11:02:48;;;;;;;0.00;0.00;;;16.90;55.00;;;;;;5012041;28;20550;-49
2023/09/03 11:05:21;;;;;;;0.08;0.08;;;16.90;55.00;;;;;;5011576;28;20205;-51
2023/09/03 11:08:29;;;;;;;0.10;0.10;;;16.90;55.00;;;;;;5010833;28;20247;-48
2023/09/03 11:11:00;;;;;;;0.10;0.10;;;16.90;55.10;;;;;;5012366;28;20200;-46
2023/09/03 11:13:32;;;;;;;0.08;0.08;;;16.90;55.00;;;;;;5012375;28;20197;-46
2023/09/03 11:16:02;;;;;;;0.10;0.10;;;16.90;55.00;;;;;;5012236;28;20204;-49
2023/09/03 11:18:33;;;;;;;0.10;0.10;;;16.90;55.10;;;;;;5011785;28;20684;-48
2023/09/03 11:21:05;;;;;;;0.00;0.00;;;16.90;55.10;;;;;;5012662;28;20637;-48
2023/09/03 11:23:37;;;;;;;0.10;0.10;;;16.90;55.10;;;;;;5011847;28;20193;-47
2023/09/03 11:26:16;;;;;;;0.10;0.10;;;16.90;55.10;;;;;;5012161;28;20204;-49
2023/09/03 11:28:47;;;;;;;0.10;0.10;;;16.90;55.10;;;;;;5011798;28;20188;-48
2023/09/03 11:31:18;;;;;;;0.10;0.10;;;16.90;55.10;;;;;;5011469;28;20228;-49
2023/09/03 11:33:50;;;;;;;0.10;0.10;;;16.90;55.10;;;;;;5010013;28;20201;-49
2023/09/03 11:36:24;;;;;;;0.10;0.10;;;16.90;55.70;;;;;;5011090;28;20586;-46
2023/09/03 11:38:58;;;;;;;0.10;0.10;;;16.90;55.10;;;;;;5012341;28;20201;-48
2023/09/03 11:41:29;;;;;;;0.00;0.00;;;16.90;55.00;;;;;;5009578;28;20646;-47
2023/09/03 11:43:59;;;;;;;0.00;0.00;;;16.90;55.00;;;;;;4993196;28;20224;-47
2023/09/03 11:46:30;;;;;;;0.10;0.10;;;16.90;55.00;;;;;;4993096;28;20205;-52
2023/09/03 11:49:04;;;;;;;0.00;0.00;;;16.90;55.10;;;;;;5000708;28;20185;-48
2023/09/03 11:51:34;;;;;;;0.10;0.10;;;16.90;55.10;;;;;;5011207;28;20193;-49
2023/09/03 11:54:07;;;;;;;0.10;0.10;;;16.90;55.00;;;;;;5011797;28;20221;-49
2023/09/03 11:56:37;;;;;;;0.00;0.00;;;16.90;55.00;;;;;;5009591;28;20213;-49
2023/09/03 11:59:08;;;;;;;0.10;0.10;;;16.90;55.00;;;;;;5010971;28;20185;-49
2023/09/03 12:01:39;;;;;;;0.10;0.10;;;16.90;55.00;;;;;;5010970;28;20181;-50
2023/09/03 12:04:10;;;;;;;0.10;0.10;;;16.90;55.00;;;;;;5009511;28;20196;-47
2023/09/03 12:06:41;;;;;;;0.10;0.10;;;16.90;55.00;;;;;;5011422;28;20209;-47
2023/09/03 12:09:15;;;;;;;0.10;0.10;;;16.90;55.10;;;;;;5011149;28;20193;-49
2023/09/03 12:11:46;;;;;;;0.10;0.10;;;16.90;55.00;;;;;;5011800;28;20246;-47
2023/09/03 12:14:30;;;;;;;0.10;0.10;;;16.90;55.00;;;;;;5039805;22;20238;-59
2023/09/03 12:17:01;;;;;;;0.10;0.10;;;16.90;55.10;;;;;;5039298;28;20211;-57
2023/09/03 12:19:41;;;;;;;0.10;0.10;;;16.90;55.00;;;;;;5039823;28;20287;-59
2023/09/03 12:22:12;;;;;;;0.10;0.10;;;16.90;55.00;;;;;;5039589;28;20249;-59
2023/09/03 12:24:45;;;;;;;0.00;0.00;;;16.90;55.00;;;;;;5036953;28;20191;-54
2023/09/03 12:27:15;;;;;;;0.00;0.00;;;16.90;55.00;;;;;;5038187;28;20220;-51
2023/09/03 12:29:46;;;;;;;0.00;0.00;;;16.90;55.00;;;;;;5040460;28;20191;-52
2023/09/03 12:32:18;;;;;;;0.00;0.00;;;16.90;55.10;;;;;;5038231;28;20660;-47
2023/09/03 12:34:51;;;;;;;0.13;0.13;;;16.80;55.00;;;;;;5039875;28;20228;-49
2023/09/03 12:37:21;;;;;;;0.10;0.10;;;16.80;55.00;;;;;;5041050;28;20238;-57
2023/09/03 12:39:54;;;;;;;0.10;0.10;;;16.80;55.00;;;;;;5041894;28;20195;-54
2023/09/03 12:42:24;;;;;;;0.10;0.10;;;16.80;55.00;;;;;;5041718;28;20195;-55
2023/09/03 12:44:55;;;;;;;0.10;0.10;;;16.80;55.00;;;;;;5037539;28;20192;-56
2023/09/03 12:47:26;;;;;;;0.10;0.10;;;16.80;55.00;;;;;;5040050;28;20214;-55
2023/09/03 12:49:56;;;;;;;0.10;0.10;;;16.80;55.00;;;;;;5037553;28;20196;-59
2023/09/03 12:52:27;;;;;;;0.10;0.10;;;16.80;55.00;;;;;;5036863;28;20196;-58
2023/09/03 12:54:59;;;;;;;0.08;0.08;;;16.80;55.10;;;;;;5031067;28;20232;-57
2023/09/03 12:57:30;;;;;;;0.10;0.10;;;16.80;55.10;;;;;;5031480;28;20219;-54
2023/09/03 13:00:01;;;;;;;0.10;0.10;;;16.80;55.00;;;;;;5031166;28;20570;-59
2023/09/03 13:02:31;;;;;;;0.10;0.10;;;16.80;55.00;;;;;;5031162;28;20196;-57
2023/09/03 13:05:02;;;;;;;0.10;0.10;;;16.80;55.10;;;;;;5030625;28;20208;-57
2023/09/03 13:07:33;;;;;;;0.00;0.00;;;16.80;55.00;;;;;;5030521;28;20218;-49
2023/09/03 13:10:05;;;;;;;0.05;0.05;;;16.80;55.00;;;;;;5031098;28;20207;-55
2023/09/03 13:15:18;;;;;;;0.05;0.05;;;16.80;55.00;;;;;;5049516;28;20610;-49
2023/09/03 13:17:51;;;;;;;0.10;0.10;;;16.80;55.10;;;;;;5050855;28;20242;-47